Time;durP1;ratioP1;P1;durP2;ratioP2;P2;SDS_P1;SDS_P2;PMS_P1;PMS_P2;Temp;Humidity;BMP_temperature;BMP_pressure;BME280_temperature;BME280_humidity;BME280_pressure;Samples;Min_cycle;Max_cycle;Signal;HPM_P1;HPM_P2
2022/11/13 00:02:34;;;;;;;8.82;6.05;;;;;;;;;;4764925;30;20052;-76
2022/11/13 00:05:22;;;;;;;8.55;5.93;;;;;;;;;;4768296;30;20047;-75
2022/11/13 00:08:11;;;;;;;10.50;6.20;;;;;;;;;;4765951;30;20620;-73
2022/11/13 00:11:13;;;;;;;10.18;5.47;;;;;;;;;;4769115;30;20508;-74
2022/11/13 00:14:02;;;;;;;8.95;5.47;;;;;;;;;;4766753;30;20068;-73
2022/11/13 00:16:50;;;;;;;13.20;5.97;;;;;;;;;;4765224;30;20060;-73
2022/11/13 00:19:38;;;;;;;7.63;5.57;;;;;;;;;;4768653;30;20047;-73
2022/11/13 00:22:27;;;;;;;11.43;6.45;;;;;;;;;;4767032;30;20511;-74
2022/11/13 00:25:15;;;;;;;11.20;5.93;;;;;;;;;;4765037;30;20060;-75
2022/11/13 00:28:03;;;;;;;15.35;6.40;;;;;;;;;;4765131;30;20056;-73
2022/11/13 00:30:58;;;;;;;11.60;6.18;;;;;;;;;;4766274;30;20531;-74
2022/11/13 00:33:46;;;;;;;12.32;5.65;;;;;;;;;;4769116;30;20047;-77
2022/11/13 00:36:55;;;;;;;9.00;5.43;;;;;;;;;;4767349;30;20055;-74
2022/11/13 00:39:44;;;;;;;11.40;6.00;;;;;;;;;;4764402;30;20154;-72
2022/11/13 00:42:34;;;;;;;12.65;7.15;;;;;;;;;;4768180;30;20051;-73
2022/11/13 00:45:22;;;;;;;11.20;6.72;;;;;;;;;;4766529;30;20602;-72
2022/11/13 00:48:10;;;;;;;12.18;6.28;;;;;;;;;;4764594;30;20056;-73
2022/11/13 00:50:58;;;;;;;11.43;7.25;;;;;;;;;;4767935;30;20047;-72
2022/11/13 00:53:47;;;;;;;14.60;6.80;;;;;;;;;;4777460;29;20060;-73
2022/11/13 00:56:35;;;;;;;11.20;7.20;;;;;;;;;;4763679;30;20272;-74
2022/11/13 00:59:23;;;;;;;10.82;7.15;;;;;;;;;;4767292;30;20075;-74
2022/11/13 01:02:14;;;;;;;11.10;6.85;;;;;;;;;;4766159;30;20055;-73
2022/11/13 01:05:03;;;;;;;12.07;7.47;;;;;;;;;;4763585;30;20060;-74
2022/11/13 01:07:51;;;;;;;13.98;7.60;;;;;;;;;;4767100;30;20511;-73
2022/11/13 01:10:43;;;;;;;13.32;7.30;;;;;;;;;;4765019;30;20056;-74
2022/11/13 01:13:41;;;;;;;15.20;7.57;;;;;;;;;;4768096;30;20051;-74
2022/11/13 01:16:30;;;;;;;12.63;8.27;;;;;;;;;;4766279;30;20060;-73
2022/11/13 01:19:18;;;;;;;13.45;7.25;;;;;;;;;;4764294;30;20043;-74
2022/11/13 01:22:07;;;;;;;11.48;8.38;;;;;;;;;;4767308;30;20532;-77
2022/11/13 01:24:55;;;;;;;14.63;7.55;;;;;;;;;;4766886;30;20056;-73
2022/11/13 01:27:44;;;;;;;13.25;7.32;;;;;;;;;;4763792;30;20060;-73
2022/11/13 01:30:32;;;;;;;13.65;8.57;;;;;;;;;;4767350;30;20536;-73
2022/11/13 01:33:21;;;;;;;13.82;7.75;;;;;;;;;;4765403;30;20056;-72
2022/11/13 01:36:15;;;;;;;11.73;8.00;;;;;;;;;;4763476;30;20064;-74
2022/11/13 01:39:04;;;;;;;14.45;8.02;;;;;;;;;;4766680;30;20508;-73
2022/11/13 01:41:53;;;;;;;8.85;7.15;;;;;;;;;;4765279;30;20064;-73
2022/11/13 01:45:03;;;;;;;12.02;7.80;;;;;;;;;;4768572;30;20056;-74
2022/11/13 01:47:51;;;;;;;13.65;8.10;;;;;;;;;;4765487;30;20066;-77
2022/11/13 01:50:40;;;;;;;11.27;7.70;;;;;;;;;;4763186;30;20079;-72
2022/11/13 01:53:28;;;;;;;10.90;7.65;;;;;;;;;;4764920;30;20064;-73
2022/11/13 01:56:17;;;;;;;10.45;6.40;;;;;;;;;;4764371;30;20055;-73
2022/11/13 01:59:19;;;;;;;7.72;5.65;;;;;;;;;;4762451;30;20608;-74
2022/11/13 02:02:08;;;;;;;12.32;6.18;;;;;;;;;;4766603;30;20048;-74
2022/11/13 02:04:56;;;;;;;10.32;6.10;;;;;;;;;;4763906;30;20052;-74
2022/11/13 02:07:45;;;;;;;7.30;5.80;;;;;;;;;;4767665;30;20485;-73
2022/11/13 02:10:34;;;;;;;15.65;10.63;;;;;;;;;;4777140;30;20063;-73
2022/11/13 02:13:23;;;;;;;12.25;7.57;;;;;;;;;;4767321;30;20086;-74
2022/11/13 02:16:14;;;;;;;10.20;6.20;;;;;;;;;;4781638;29;20060;-74
2022/11/13 02:19:11;;;;;;;10.65;7.13;;;;;;;;;;4769383;30;20505;-75
2022/11/13 02:22:06;;;;;;;11.27;6.07;;;;;;;;;;4766724;30;20044;-73
2022/11/13 02:24:58;;;;;;;9.25;6.93;;;;;;;;;;4769733;30;20427;-74
2022/11/13 02:27:48;;;;;;;11.60;6.90;;;;;;;;;;4767728;30;20060;-73
2022/11/13 02:30:37;;;;;;;9.98;5.65;;;;;;;;;;4771502;30;20376;-74
2022/11/13 02:33:29;;;;;;;13.60;6.30;;;;;;;;;;4769556;30;20067;-74
2022/11/13 02:36:21;;;;;;;9.50;7.50;;;;;;;;;;4767570;30;20052;-73
2022/11/13 02:39:11;;;;;;;10.43;6.38;;;;;;;;;;4769574;30;20059;-74
2022/11/13 02:42:00;;;;;;;11.25;7.50;;;;;;;;;;4768341;30;20064;-74
2022/11/13 02:44:48;;;;;;;10.25;6.53;;;;;;;;;;4766523;30;20052;-73
2022/11/13 02:47:37;;;;;;;10.05;7.30;;;;;;;;;;4769857;30;20052;-74
2022/11/13 02:50:25;;;;;;;9.93;7.07;;;;;;;;;;4768559;30;20051;-73
2022/11/13 02:53:14;;;;;;;8.30;6.55;;;;;;;;;;4766308;30;20515;-74
2022/11/13 02:56:02;;;;;;;10.75;7.65;;;;;;;;;;4770097;30;20063;-73
2022/11/13 02:58:50;;;;;;;10.00;7.68;;;;;;;;;;4767327;30;20056;-74
2022/11/13 03:01:38;;;;;;;8.88;7.65;;;;;;;;;;4766294;30;20047;-73
2022/11/13 03:04:27;;;;;;;9.27;7.25;;;;;;;;;;4768995;30;20055;-73
2022/11/13 03:07:35;;;;;;;9.13;7.38;;;;;;;;;;4767194;30;20060;-73
2022/11/13 03:10:24;;;;;;;10.65;6.85;;;;;;;;;;4770057;30;20056;-73
2022/11/13 03:13:11;;;;;;;;;;;;;;;;;;4768339;30;20497;-74
2022/11/13 03:16:11;;;;;;;14.07;6.13;;;;;;;;;;4766097;30;19926;-73
2022/11/13 03:18:59;;;;;;;9.07;7.40;;;;;;;;;;4769208;30;20051;-72
2022/11/13 03:21:47;;;;;;;9.68;6.10;;;;;;;;;;4767290;30;20059;-73
2022/11/13 03:24:35;;;;;;;9.65;6.07;;;;;;;;;;4764870;30;20060;-73
2022/11/13 03:27:25;;;;;;;7.70;5.50;;;;;;;;;;4767651;30;20063;-73
2022/11/13 03:30:14;;;;;;;11.68;7.43;;;;;;;;;;4767007;30;20048;-74
2022/11/13 03:33:02;;;;;;;15.65;7.13;;;;;;;;;;4769917;30;20052;-73
2022/11/13 03:35:50;;;;;;;9.35;6.75;;;;;;;;;;4768675;30;20056;-74
2022/11/13 03:38:39;;;;;;;8.45;6.55;;;;;;;;;;4765082;30;20056;-73
2022/11/13 03:41:27;;;;;;;8.32;6.82;;;;;;;;;;4770662;30;20047;-73
2022/11/13 03:44:15;;;;;;;7.32;6.03;;;;;;;;;;4767952;30;20055;-73
2022/11/13 03:47:04;;;;;;;6.90;6.20;;;;;;;;;;4766257;30;20063;-73
2022/11/13 03:49:52;;;;;;;9.48;5.45;;;;;;;;;;4769388;30;20500;-73
2022/11/13 03:52:40;;;;;;;9.35;6.40;;;;;;;;;;4767802;30;20047;-73
2022/11/13 03:55:28;;;;;;;12.50;6.85;;;;;;;;;;4765641;30;20059;-73
2022/11/13 03:58:17;;;;;;;8.98;6.38;;;;;;;;;;4769827;30;20048;-73
2022/11/13 04:01:05;;;;;;;8.02;6.53;;;;;;;;;;4767595;30;20055;-74
2022/11/13 04:03:53;;;;;;;9.05;6.85;;;;;;;;;;4765128;30;20055;-72
2022/11/13 04:06:42;;;;;;;8.63;6.38;;;;;;;;;;4768340;30;20052;-74
2022/11/13 04:09:30;;;;;;;7.55;6.05;;;;;;;;;;4766976;30;20048;-73
2022/11/13 04:12:18;;;;;;;8.52;6.60;;;;;;;;;;4765563;30;20392;-73
2022/11/13 04:15:07;;;;;;;9.73;7.15;;;;;;;;;;4768929;30;20484;-73
2022/11/13 04:17:56;;;;;;;9.02;6.70;;;;;;;;;;4766984;30;20064;-73
2022/11/13 04:20:44;;;;;;;9.77;6.55;;;;;;;;;;4765040;30;20056;-73
2022/11/13 04:23:32;;;;;;;9.55;6.43;;;;;;;;;;4768104;30;20051;-73
2022/11/13 04:26:21;;;;;;;11.07;7.03;;;;;;;;;;4766596;30;20052;-73
2022/11/13 04:29:09;;;;;;;9.55;5.80;;;;;;;;;;4764232;30;20055;-74
2022/11/13 04:31:57;;;;;;;9.73;6.63;;;;;;;;;;4768029;30;20052;-74
2022/11/13 04:34:49;;;;;;;7.72;5.97;;;;;;;;;;4763820;30;20480;-73
2022/11/13 04:37:38;;;;;;;9.55;6.47;;;;;;;;;;4769250;30;20052;-74
2022/11/13 04:40:28;;;;;;;9.98;6.80;;;;;;;;;;4764260;30;20060;-73
2022/11/13 04:43:16;;;;;;;10.35;6.07;;;;;;;;;;4765280;30;20056;-74
2022/11/13 04:46:05;;;;;;;9.35;6.88;;;;;;;;;;4768784;30;20052;-72
2022/11/13 04:48:53;;;;;;;9.43;6.78;;;;;;;;;;4767601;30;20052;-73
2022/11/13 04:51:41;;;;;;;10.00;6.13;;;;;;;;;;4765261;30;20055;-73
2022/11/13 04:54:29;;;;;;;9.82;6.57;;;;;;;;;;4768143;30;20052;-73
2022/11/13 04:57:18;;;;;;;10.30;7.28;;;;;;;;;;4766683;30;20063;-73
2022/11/13 05:00:07;;;;;;;7.97;6.50;;;;;;;;;;4764827;30;20056;-73
2022/11/13 05:02:56;;;;;;;8.35;5.65;;;;;;;;;;4768800;30;20056;-73
2022/11/13 05:05:44;;;;;;;11.60;7.40;;;;;;;;;;4767100;30;20044;-73
2022/11/13 05:08:33;;;;;;;10.52;6.30;;;;;;;;;;4764136;30;20056;-72
2022/11/13 05:11:21;;;;;;;12.95;6.28;;;;;;;;;;4767803;30;20055;-74
2022/11/13 05:14:12;;;;;;;9.77;6.63;;;;;;;;;;4776664;29;20492;-73
2022/11/13 05:17:00;;;;;;;10.20;7.50;;;;;;;;;;4763337;30;20516;-74
2022/11/13 05:19:48;;;;;;;11.18;7.43;;;;;;;;;;4767720;30;20060;-73
2022/11/13 05:22:36;;;;;;;8.82;6.95;;;;;;;;;;4766135;30;20052;-73
2022/11/13 05:25:24;;;;;;;8.68;7.07;;;;;;;;;;4764000;30;20060;-73
2022/11/13 05:28:13;;;;;;;9.38;6.25;;;;;;;;;;4763674;30;20063;-73
2022/11/13 05:31:20;;;;;;;12.57;6.63;;;;;;;;;;4765432;30;20423;-73
2022/11/13 05:34:09;;;;;;;13.75;6.47;;;;;;;;;;4767430;30;20048;-73
2022/11/13 05:36:57;;;;;;;9.80;7.57;;;;;;;;;;4765517;30;20059;-73
2022/11/13 05:39:46;;;;;;;9.35;7.13;;;;;;;;;;4764488;30;20412;-74
2022/11/13 05:42:34;;;;;;;10.07;6.43;;;;;;;;;;4767746;30;20424;-73
2022/11/13 05:45:22;;;;;;;7.68;6.00;;;;;;;;;;4765848;30;20056;-73
2022/11/13 05:48:12;;;;;;;9.25;6.95;;;;;;;;;;4767443;30;20439;-73
2022/11/13 05:51:03;;;;;;;8.57;6.40;;;;;;;;;;4782344;29;20381;-73
2022/11/13 05:53:52;;;;;;;10.45;8.27;;;;;;;;;;4768870;30;20055;-73
2022/11/13 05:56:40;;;;;;;8.45;6.97;;;;;;;;;;4766989;30;20591;-73
2022/11/13 05:59:28;;;;;;;11.70;7.00;;;;;;;;;;4771195;30;20512;-74
2022/11/13 06:02:17;;;;;;;7.82;6.30;;;;;;;;;;4768269;30;20059;-74
2022/11/13 06:05:05;;;;;;;10.60;6.85;;;;;;;;;;4771486;30;20063;-73
2022/11/13 06:07:53;;;;;;;10.70;7.25;;;;;;;;;;4769730;30;20052;-74
2022/11/13 06:10:42;;;;;;;7.95;5.97;;;;;;;;;;4768390;30;20060;-73
2022/11/13 06:13:30;;;;;;;9.98;7.50;;;;;;;;;;4771313;30;20119;-74
2022/11/13 06:16:24;;;;;;;12.40;7.68;;;;;;;;;;4781289;29;20064;-74
2022/11/13 06:19:12;;;;;;;11.18;7.00;;;;;;;;;;4767422;30;20519;-74
2022/11/13 06:22:00;;;;;;;8.82;7.00;;;;;;;;;;4771003;30;20059;-73
2022/11/13 06:24:48;;;;;;;9.60;7.35;;;;;;;;;;4769276;30;20055;-73
2022/11/13 06:27:37;;;;;;;10.70;7.07;;;;;;;;;;4766959;30;20063;-72
2022/11/13 06:30:25;;;;;;;9.73;7.68;;;;;;;;;;4770858;30;20453;-73
2022/11/13 06:33:14;;;;;;;14.48;6.82;;;;;;;;;;4769296;30;20420;-74
2022/11/13 06:36:02;;;;;;;;;;;;;;;;;;4767303;30;20055;-73
2022/11/13 06:38:51;;;;;;;9.82;6.22;;;;;;;;;;4770541;30;19921;-72
2022/11/13 06:41:42;;;;;;;8.98;6.90;;;;;;;;;;4768196;30;20047;-73
2022/11/13 06:44:30;;;;;;;10.93;7.63;;;;;;;;;;4766176;30;20056;-74
2022/11/13 06:47:19;;;;;;;11.02;8.05;;;;;;;;;;4770291;30;20044;-73
2022/11/13 06:50:08;;;;;;;9.73;6.20;;;;;;;;;;4768465;30;20059;-73
2022/11/13 06:52:57;;;;;;;15.23;7.05;;;;;;;;;;4771083;30;20057;-74
2022/11/13 06:55:49;;;;;;;12.63;7.75;;;;;;;;;;4769373;30;20052;-73
2022/11/13 06:58:38;;;;;;;10.43;6.82;;;;;;;;;;4766381;30;20068;-74
2022/11/13 07:01:26;;;;;;;13.10;7.20;;;;;;;;;;4770464;30;20059;-74
2022/11/13 07:04:15;;;;;;;10.85;7.00;;;;;;;;;;4768083;30;20043;-73
2022/11/13 07:07:03;;;;;;;9.48;5.88;;;;;;;;;;4767643;30;20063;-73
2022/11/13 07:09:51;;;;;;;8.27;6.45;;;;;;;;;;4770794;30;20052;-73
2022/11/13 07:12:40;;;;;;;10.13;6.15;;;;;;;;;;4768420;30;20051;-73
2022/11/13 07:15:28;;;;;;;10.48;7.10;;;;;;;;;;4766645;30;20052;-73
2022/11/13 07:18:16;;;;;;;9.30;6.00;;;;;;;;;;4769679;30;20063;-73
2022/11/13 07:21:11;;;;;;;9.13;6.63;;;;;;;;;;4767807;30;20056;-73
2022/11/13 07:24:01;;;;;;;6.80;6.10;;;;;;;;;;4765923;30;20060;-73
2022/11/13 07:26:49;;;;;;;8.10;6.03;;;;;;;;;;4769361;30;20060;-74
2022/11/13 07:29:38;;;;;;;13.02;6.75;;;;;;;;;;4767750;30;20056;-73
2022/11/13 07:32:26;;;;;;;9.35;6.80;;;;;;;;;;4765665;30;20051;-73
2022/11/13 07:35:15;;;;;;;10.35;6.68;;;;;;;;;;4780217;29;20047;-73
2022/11/13 07:38:03;;;;;;;9.82;6.35;;;;;;;;;;4767113;30;20404;-73
2022/11/13 07:40:51;;;;;;;9.15;6.20;;;;;;;;;;4766052;30;20044;-73
2022/11/13 07:43:40;;;;;;;12.95;8.23;;;;;;;;;;4768213;30;20055;-73
2022/11/13 07:46:29;;;;;;;11.43;9.15;;;;;;;;;;4766251;30;20090;-73
2022/11/13 07:49:17;;;;;;;10.95;7.18;;;;;;;;;;4769703;30;20043;-73
2022/11/13 07:52:05;;;;;;;9.13;6.80;;;;;;;;;;4768192;30;20515;-73
2022/11/13 07:54:54;;;;;;;9.23;7.57;;;;;;;;;;4766789;30;20059;-73
2022/11/13 07:57:42;;;;;;;12.25;8.02;;;;;;;;;;4769942;30;20059;-73
2022/11/13 08:00:32;;;;;;;10.63;7.60;;;;;;;;;;4767982;30;20063;-73
2022/11/13 08:03:21;;;;;;;10.40;6.45;;;;;;;;;;4766608;30;20417;-73
2022/11/13 08:06:09;;;;;;;12.45;6.43;;;;;;;;;;4769611;30;20402;-73
2022/11/13 08:08:57;;;;;;;8.35;6.32;;;;;;;;;;4767244;30;20416;-73
2022/11/13 08:11:46;;;;;;;10.43;8.10;;;;;;;;;;4765998;30;20043;-73
2022/11/13 08:14:34;;;;;;;13.20;7.22;;;;;;;;;;4768956;30;20055;-73
2022/11/13 08:17:22;;;;;;;11.32;7.80;;;;;;;;;;4767371;30;20594;-73
2022/11/13 08:20:11;;;;;;;8.82;6.55;;;;;;;;;;4765049;30;20056;-73
2022/11/13 08:23:01;;;;;;;10.82;7.15;;;;;;;;;;4768453;30;20060;-73
2022/11/13 08:25:50;;;;;;;11.32;7.40;;;;;;;;;;4766623;30;20542;-72
2022/11/13 08:28:39;;;;;;;8.55;6.22;;;;;;;;;;4764639;30;20056;-72
2022/11/13 08:31:28;;;;;;;11.95;6.50;;;;;;;;;;4778816;29;20428;-73
2022/11/13 08:34:16;;;;;;;11.38;7.53;;;;;;;;;;4766718;30;20420;-72
2022/11/13 08:37:06;;;;;;;12.25;8.77;;;;;;;;;;4764107;30;20055;-72
2022/11/13 08:39:54;;;;;;;;;;;;;;;;;;4766904;30;20052;-72
2022/11/13 08:42:43;;;;;;;11.48;6.70;;;;;;;;;;4765958;30;19921;-72
2022/11/13 08:45:32;;;;;;;9.65;7.07;;;;;;;;;;4768806;30;20048;-72
2022/11/13 08:48:21;;;;;;;10.38;7.30;;;;;;;;;;4767444;30;20055;-72
2022/11/13 08:51:09;;;;;;;9.45;7.93;;;;;;;;;;4766156;30;20047;-72
2022/11/13 08:53:58;;;;;;;11.20;7.28;;;;;;;;;;4769728;30;20059;-72
2022/11/13 08:56:50;;;;;;;9.80;6.85;;;;;;;;;;4767216;30;20056;-72
2022/11/13 08:59:42;;;;;;;8.57;5.80;;;;;;;;;;4764805;30;20052;-71
2022/11/13 09:02:31;;;;;;;8.75;6.72;;;;;;;;;;4768132;30;20048;-72
2022/11/13 09:05:19;;;;;;;10.85;5.95;;;;;;;;;;4766136;30;20055;-73
2022/11/13 09:08:07;;;;;;;10.10;7.03;;;;;;;;;;4764434;30;20051;-73
2022/11/13 09:10:55;;;;;;;10.35;6.35;;;;;;;;;;4768488;30;20500;-73
2022/11/13 09:13:43;;;;;;;;;;;;;;;;;;4766505;30;20568;-73
2022/11/13 09:16:37;;;;;;;10.63;7.10;;;;;;;;;;4763874;30;20465;-73
2022/11/13 09:19:26;;;;;;;10.00;6.65;;;;;;;;;;4767043;30;20051;-72
2022/11/13 09:22:14;;;;;;;8.63;6.60;;;;;;;;;;4764491;30;20063;-73
2022/11/13 09:25:01;;;;;;;;;;;;;;;;;;4769228;30;20056;-72
2022/11/13 09:27:55;;;;;;;7.97;5.30;;;;;;;;;;4764618;30;19925;-72
2022/11/13 09:30:43;;;;;;;7.65;6.28;;;;;;;;;;4765412;30;20056;-73
2022/11/13 09:33:32;;;;;;;12.77;7.53;;;;;;;;;;4768501;30;20063;-73
2022/11/13 09:36:21;;;;;;;9.20;4.80;;;;;;;;;;4766594;30;20669;-73
2022/11/13 09:39:09;;;;;;;8.80;5.00;;;;;;;;;;4764254;30;20067;-73
2022/11/13 09:42:10;;;;;;;5.95;4.30;;;;;;;;;;4768228;30;20048;-73
2022/11/13 09:45:09;;;;;;;6.95;4.85;;;;;;;;;;4765598;30;20064;-73
2022/11/13 09:48:25;;;;;;;8.98;4.03;;;;;;;;;;4768538;30;20043;-73
2022/11/13 09:51:19;;;;;;;4.40;4.00;;;;;;;;;;4763455;30;20063;-73
2022/11/13 09:54:13;;;;;;;6.03;4.15;;;;;;;;;;4768510;30;20048;-76
2022/11/13 09:57:10;;;;;;;7.35;3.83;;;;;;;;;;4766774;30;20527;-74
2022/11/13 10:00:11;;;;;;;5.40;4.25;;;;;;;;;;4764484;30;20044;-72
2022/11/13 10:03:23;;;;;;;5.78;4.78;;;;;;;;;;4767668;30;20052;-73
2022/11/13 10:06:49;;;;;;;4.30;3.40;;;;;;;;;;4764053;30;20044;-73
2022/11/13 10:10:21;;;;;;;4.90;3.60;;;;;;;;;;4766731;30;20056;-73
2022/11/13 10:13:16;;;;;;;8.10;4.10;;;;;;;;;;4770041;30;20064;-73
2022/11/13 10:16:25;;;;;;;5.45;3.88;;;;;;;;;;4765704;30;20052;-73
2022/11/13 10:19:19;;;;;;;4.32;3.85;;;;;;;;;;4763173;30;20068;-73
2022/11/13 10:22:29;;;;;;;4.75;3.75;;;;;;;;;;4766109;30;20060;-73
2022/11/13 10:25:24;;;;;;;4.50;3.80;;;;;;;;;;4763363;30;20052;-73
2022/11/13 10:28:24;;;;;;;3.95;3.22;;;;;;;;;;4763485;30;20423;-73
2022/11/13 10:31:47;;;;;;;4.95;3.72;;;;;;;;;;4763291;30;20047;-71
2022/11/13 10:34:35;;;;;;;6.03;3.58;;;;;;;;;;4768916;30;20060;-73
2022/11/13 10:37:29;;;;;;;6.45;3.28;;;;;;;;;;4767365;30;20508;-73
2022/11/13 10:40:31;;;;;;;7.63;2.92;;;;;;;;;;4767312;30;20052;-72
2022/11/13 10:43:23;;;;;;;3.60;2.88;;;;;;;;;;4768660;30;20056;-72
2022/11/13 10:46:24;;;;;;;3.92;3.53;;;;;;;;;;4766684;30;20508;-73
2022/11/13 10:49:27;;;;;;;4.60;3.72;;;;;;;;;;4769611;30;20048;-73
2022/11/13 10:52:27;;;;;;;4.45;3.10;;;;;;;;;;4766529;30;20053;-74
2022/11/13 10:55:25;;;;;;;4.43;3.38;;;;;;;;;;4769449;30;20044;-72
2022/11/13 10:58:18;;;;;;;3.72;3.38;;;;;;;;;;4766966;30;20064;-75
2022/11/13 11:01:23;;;;;;;5.47;2.67;;;;;;;;;;4770668;30;20052;-72
2022/11/13 11:04:23;;;;;;;3.47;3.17;;;;;;;;;;4768113;30;20504;-73
2022/11/13 11:07:22;;;;;;;4.20;2.65;;;;;;;;;;4770887;30;20056;-72
2022/11/13 11:10:31;;;;;;;5.53;3.22;;;;;;;;;;4768347;30;20056;-72
2022/11/13 11:13:23;;;;;;;3.83;2.70;;;;;;;;;;4770823;30;20043;-72
2022/11/13 11:16:20;;;;;;;3.85;3.17;;;;;;;;;;4768585;30;20048;-73
2022/11/13 11:19:12;;;;;;;4.28;3.33;;;;;;;;;;4767137;30;20487;-73
2022/11/13 11:22:14;;;;;;;5.22;3.35;;;;;;;;;;4770094;30;20051;-73
2022/11/13 11:25:25;;;;;;;5.78;3.20;;;;;;;;;;4767788;30;20052;-72
2022/11/13 11:28:25;;;;;;;6.82;3.40;;;;;;;;;;4776810;29;20059;-72
2022/11/13 11:31:48;;;;;;;4.07;3.15;;;;;;;;;;4767552;30;20048;-73
2022/11/13 11:34:55;;;;;;;4.05;3.40;;;;;;;;;;4773519;29;20500;-72
2022/11/13 11:38:08;;;;;;;3.80;3.40;;;;;;;;;;4766928;30;20764;-74
2022/11/13 11:41:07;;;;;;;3.78;3.38;;;;;;;;;;4768997;30;20477;-73
2022/11/13 11:44:20;;;;;;;3.40;3.10;;;;;;;;;;4776806;29;20423;-72
2022/11/13 11:47:17;;;;;;;4.47;3.38;;;;;;;;;;4769697;30;20419;-73
2022/11/13 11:50:16;;;;;;;4.85;3.00;;;;;;;;;;4766793;30;20055;-73
2022/11/13 11:53:22;;;;;;;6.63;3.20;;;;;;;;;;4769804;30;20412;-73
2022/11/13 11:56:41;;;;;;;7.70;3.40;;;;;;;;;;4767784;30;20052;-73
2022/11/13 11:59:50;;;;;;;4.03;3.22;;;;;;;;;;4805213;29;20066;-73
2022/11/13 12:03:01;;;;;;;6.03;3.30;;;;;;;;;;4802339;29;20039;-72
2022/11/13 12:06:10;;;;;;;5.15;3.58;;;;;;;;;;4799708;29;20039;-72
2022/11/13 12:09:14;;;;;;;5.07;3.63;;;;;;;;;;4785814;29;20047;-73
2022/11/13 12:12:14;;;;;;;6.72;3.45;;;;;;;;;;4787247;29;20487;-74
2022/11/13 12:15:24;;;;;;;6.80;4.90;;;;;;;;;;4784367;29;20059;-74
2022/11/13 12:18:27;;;;;;;11.18;5.03;;;;;;;;;;4786246;29;20055;-76
2022/11/13 12:21:37;;;;;;;7.45;5.57;;;;;;;;;;4784269;29;20507;-74
2022/11/13 12:24:51;;;;;;;10.38;6.00;;;;;;;;;;4786796;29;20059;-74
2022/11/13 12:28:09;;;;;;;9.57;5.85;;;;;;;;;;4783709;29;20504;-73
2022/11/13 12:31:13;;;;;;;8.18;5.00;;;;;;;;;;4785948;29;20052;-72
2022/11/13 12:34:09;;;;;;;7.03;4.95;;;;;;;;;;4783775;29;20055;-73
2022/11/13 12:36:58;;;;;;;5.57;3.80;;;;;;;;;;4786643;29;20051;-72
2022/11/13 12:40:00;;;;;;;9.93;3.95;;;;;;;;;;4784076;29;20055;-73
2022/11/13 12:43:17;;;;;;;6.45;3.75;;;;;;;;;;4781837;29;20059;-74
2022/11/13 12:46:09;;;;;;;4.03;3.05;;;;;;;;;;4785484;29;20067;-73
2022/11/13 12:48:59;;;;;;;7.80;4.10;;;;;;;;;;4783057;29;20055;-73
2022/11/13 12:51:54;;;;;;;7.88;3.08;;;;;;;;;;4785755;29;20091;-74
2022/11/13 12:54:44;;;;;;;6.78;3.20;;;;;;;;;;4783650;29;20495;-72
2022/11/13 12:57:33;;;;;;;4.38;2.95;;;;;;;;;;4785282;29;20050;-74
2022/11/13 13:00:29;;;;;;;7.22;3.17;;;;;;;;;;4805696;29;20067;-72
2022/11/13 13:03:38;;;;;;;4.53;3.15;;;;;;;;;;4799763;29;20055;-73
2022/11/13 13:06:29;;;;;;;3.17;2.78;;;;;;;;;;4799582;29;20063;-73
2022/11/13 13:09:34;;;;;;;4.07;3.40;;;;;;;;;;4801900;29;20050;-75
2022/11/13 13:12:29;;;;;;;7.57;3.10;;;;;;;;;;4804164;29;20058;-73
2022/11/13 13:15:53;;;;;;;4.35;3.55;;;;;;;;;;4800656;29;20059;-74
2022/11/13 13:18:41;;;;;;;6.50;2.97;;;;;;;;;;4798221;29;20055;-74
2022/11/13 13:21:42;;;;;;;9.63;3.25;;;;;;;;;;4800871;29;20117;-73
2022/11/13 13:24:36;;;;;;;7.35;2.92;;;;;;;;;;4798713;29;20054;-74
2022/11/13 13:27:29;;;;;;;5.40;2.97;;;;;;;;;;4800984;29;20043;-73
2022/11/13 13:30:25;;;;;;;6.20;3.30;;;;;;;;;;4800858;29;20495;-74
2022/11/13 13:33:32;;;;;;;6.90;3.05;;;;;;;;;;4803073;29;20051;-74
2022/11/13 13:36:42;;;;;;;6.38;3.65;;;;;;;;;;4801376;29;20055;-74
2022/11/13 13:39:48;;;;;;;4.35;3.13;;;;;;;;;;4801571;29;20063;-73
2022/11/13 13:43:11;;;;;;;;;;;;;;;;;;4801522;29;20059;-74
2022/11/13 13:46:17;;;;;;;4.53;2.70;;;;;;;;;;4831820;29;19920;-73
2022/11/13 13:49:13;;;;;;;4.15;2.80;;;;;;;;;;4799764;29;20058;-74
2022/11/13 13:52:04;;;;;;;4.35;2.30;;;;;;;;;;4802380;29;20059;-74
2022/11/13 13:54:53;;;;;;;5.40;2.60;;;;;;;;;;4800866;29;20062;-73
2022/11/13 13:57:41;;;;;;;3.30;2.60;;;;;;;;;;4799191;29;20051;-73
2022/11/13 14:00:31;;;;;;;5.63;3.10;;;;;;;;;;4803045;29;20059;-73
2022/11/13 14:03:21;;;;;;;3.95;2.65;;;;;;;;;;4800372;29;20043;-73
2022/11/13 14:06:19;;;;;;;5.68;2.72;;;;;;;;;;4799077;29;20058;-73
2022/11/13 14:09:15;;;;;;;6.80;2.85;;;;;;;;;;4805505;29;20050;-74
2022/11/13 14:12:06;;;;;;;3.92;2.78;;;;;;;;;;4803349;29;20055;-74
2022/11/13 14:14:56;;;;;;;5.55;2.90;;;;;;;;;;4806549;29;20043;-77
2022/11/13 14:17:44;;;;;;;9.45;2.80;;;;;;;;;;4804819;29;20050;-74
2022/11/13 14:20:48;;;;;;;6.63;2.83;;;;;;;;;;4803607;29;20054;-74
2022/11/13 14:23:43;;;;;;;5.78;2.70;;;;;;;;;;4806169;29;20051;-75
2022/11/13 14:26:32;;;;;;;10.00;3.05;;;;;;;;;;4803623;29;20047;-75
2022/11/13 14:29:43;;;;;;;11.98;3.10;;;;;;;;;;4806867;29;20055;-74
2022/11/13 14:32:37;;;;;;;5.53;3.35;;;;;;;;;;4804434;29;20051;-74
2022/11/13 14:35:33;;;;;;;5.07;3.15;;;;;;;;;;4807182;29;20055;-75
2022/11/13 14:38:32;;;;;;;8.45;3.47;;;;;;;;;;4805243;29;20055;-74
2022/11/13 14:41:28;;;;;;;4.03;2.72;;;;;;;;;;4797179;29;20134;-74
2022/11/13 14:44:26;;;;;;;7.65;2.97;;;;;;;;;;4804255;29;20051;-75
2022/11/13 14:47:25;;;;;;;3.72;2.80;;;;;;;;;;4801962;29;20055;-74
2022/11/13 14:50:22;;;;;;;5.45;3.42;;;;;;;;;;4805053;29;20055;-75
2022/11/13 14:53:11;;;;;;;4.50;3.40;;;;;;;;;;4802570;29;20055;-76
2022/11/13 14:56:03;;;;;;;6.15;4.10;;;;;;;;;;4802331;29;20410;-75
2022/11/13 14:58:51;;;;;;;6.30;3.72;;;;;;;;;;4807100;29;20055;-73
2022/11/13 15:01:40;;;;;;;8.25;3.92;;;;;;;;;;4803832;29;20062;-73
2022/11/13 15:04:29;;;;;;;4.18;3.15;;;;;;;;;;4801860;29;20665;-72
2022/11/13 15:07:30;;;;;;;13.02;4.30;;;;;;;;;;4802803;29;20067;-74
2022/11/13 15:10:21;;;;;;;7.43;3.95;;;;;;;;;;4801228;29;20055;-73
2022/11/13 15:13:14;;;;;;;7.07;3.67;;;;;;;;;;4805478;29;20051;-72
2022/11/13 15:16:03;;;;;;;5.95;4.00;;;;;;;;;;4805812;29;20058;-72
2022/11/13 15:18:57;;;;;;;6.57;4.22;;;;;;;;;;4800864;29;20059;-73
2022/11/13 15:21:46;;;;;;;9.60;4.10;;;;;;;;;;4805206;29;20062;-73
2022/11/13 15:24:54;;;;;;;8.77;4.18;;;;;;;;;;4803346;29;20063;-73
2022/11/13 15:27:43;;;;;;;6.93;4.65;;;;;;;;;;4802916;29;20051;-73
2022/11/13 15:30:32;;;;;;;7.13;4.25;;;;;;;;;;4804366;29;20055;-73
2022/11/13 15:33:20;;;;;;;9.70;5.50;;;;;;;;;;4802904;29;20051;-73
2022/11/13 15:36:09;;;;;;;7.00;5.13;;;;;;;;;;4805933;29;20059;-73
2022/11/13 15:38:58;;;;;;;7.93;4.82;;;;;;;;;;4803500;29;20055;-73
2022/11/13 15:41:52;;;;;;;7.18;5.10;;;;;;;;;;4801375;29;20047;-73
2022/11/13 15:44:40;;;;;;;6.95;5.28;;;;;;;;;;4805210;29;20476;-73
2022/11/13 15:47:31;;;;;;;10.57;5.13;;;;;;;;;;4802999;29;20055;-72
2022/11/13 15:50:19;;;;;;;6.88;4.78;;;;;;;;;;4801404;29;20059;-73
2022/11/13 15:53:11;;;;;;;5.00;4.50;;;;;;;;;;4800889;29;20565;-74
2022/11/13 15:56:03;;;;;;;9.02;5.32;;;;;;;;;;4802355;29;20059;-73
2022/11/13 15:58:52;;;;;;;7.78;5.43;;;;;;;;;;4805800;29;20051;-73
2022/11/13 16:01:40;;;;;;;7.55;5.03;;;;;;;;;;4804252;29;20764;-73
2022/11/13 16:04:28;;;;;;;9.15;5.60;;;;;;;;;;4801877;29;20043;-73
2022/11/13 16:07:37;;;;;;;7.65;5.10;;;;;;;;;;4805105;29;20062;-73
2022/11/13 16:10:28;;;;;;;10.85;5.82;;;;;;;;;;4802806;29;20051;-72
2022/11/13 16:13:16;;;;;;;8.82;5.38;;;;;;;;;;4800754;29;20058;-73
2022/11/13 16:16:05;;;;;;;10.73;4.93;;;;;;;;;;4803791;29;20699;-73
2022/11/13 16:18:54;;;;;;;8.02;5.30;;;;;;;;;;4802462;29;20063;-73
2022/11/13 16:21:46;;;;;;;7.38;5.15;;;;;;;;;;4805138;29;20387;-74
2022/11/13 16:24:34;;;;;;;8.23;5.15;;;;;;;;;;4803478;29;20058;-72
2022/11/13 16:27:32;;;;;;;8.13;6.20;;;;;;;;;;4802059;29;20055;-74
2022/11/13 16:30:27;;;;;;;7.40;5.15;;;;;;;;;;4804625;29;20495;-73
2022/11/13 16:33:15;;;;;;;7.05;5.05;;;;;;;;;;4802177;29;20047;-73
2022/11/13 16:36:04;;;;;;;7.65;5.57;;;;;;;;;;4800754;29;20503;-73
2022/11/13 16:38:57;;;;;;;9.32;5.65;;;;;;;;;;4803807;29;20138;-72
2022/11/13 16:41:45;;;;;;;7.28;5.35;;;;;;;;;;4802260;29;20051;-72
2022/11/13 16:44:33;;;;;;;7.00;4.97;;;;;;;;;;4804909;29;20419;-73
2022/11/13 16:47:24;;;;;;;9.77;4.68;;;;;;;;;;4803302;29;20415;-72
2022/11/13 16:50:16;;;;;;;8.43;4.53;;;;;;;;;;4801824;29;20042;-74
2022/11/13 16:53:06;;;;;;;8.55;4.78;;;;;;;;;;4804757;29;20062;-74
2022/11/13 16:55:54;;;;;;;6.97;4.65;;;;;;;;;;4802980;29;20059;-72
2022/11/13 16:58:43;;;;;;;8.65;5.20;;;;;;;;;;4801003;29;20051;-72
2022/11/13 17:01:31;;;;;;;6.43;4.68;;;;;;;;;;4804536;29;20059;-73
2022/11/13 17:04:19;;;;;;;4.78;4.38;;;;;;;;;;4802522;29;20059;-72
2022/11/13 17:07:17;;;;;;;8.15;5.20;;;;;;;;;;4800607;29;20047;-73
2022/11/13 17:10:06;;;;;;;9.80;4.88;;;;;;;;;;4803683;29;20054;-72
2022/11/13 17:13:14;;;;;;;9.23;5.63;;;;;;;;;;4800825;29;20047;-75
2022/11/13 17:16:02;;;;;;;7.35;5.25;;;;;;;;;;4804873;29;20058;-72